Time;durP1;ratioP1;P1;durP2;ratioP2;P2;SDS_P1;SDS_P2;PMS_P1;PMS_P2;Temp;Humidity;BMP_temperature;BMP_pressure;BME280_temperature;BME280_humidity;BME280_pressure;Samples;Min_cycle;Max_cycle;Signal;HPM_P1;HPM_P2
2024/01/13 00:00:44;;;;;;;4.45;2.60;;;5.20;99.90;;;;;;5015368;28;20049;-81
2024/01/13 00:03:09;;;;;;;7.65;2.60;;;5.20;99.90;;;;;;5015335;28;20030;-80
2024/01/13 00:05:35;;;;;;;4.68;2.45;;;5.20;99.90;;;;;;5015281;28;20054;-80
2024/01/13 00:08:01;;;;;;;4.40;2.75;;;5.20;99.90;;;;;;4996287;28;20057;-80
2024/01/13 00:10:26;;;;;;;4.15;2.50;;;5.20;99.90;;;;;;4976155;28;20030;-81
2024/01/13 00:12:52;;;;;;;6.25;3.08;;;5.20;99.90;;;;;;4990977;28;20090;-81
2024/01/13 00:15:18;;;;;;;4.45;2.53;;;5.20;99.90;;;;;;4975815;28;20097;-81
2024/01/13 00:17:44;;;;;;;3.47;2.88;;;5.20;99.90;;;;;;4976190;28;20029;-81
2024/01/13 00:20:10;;;;;;;2.67;2.22;;;5.20;99.90;;;;;;4974820;28;20470;-82
2024/01/13 00:22:36;;;;;;;3.63;2.78;;;5.10;99.90;;;;;;4990767;28;20031;-81
2024/01/13 00:25:03;;;;;;;11.07;3.50;;;5.20;99.90;;;;;;4985376;28;20126;-81
2024/01/13 00:27:29;;;;;;;5.05;3.42;;;5.20;99.90;;;;;;4977858;28;20181;-81
2024/01/13 00:29:55;;;;;;;4.22;3.47;;;5.20;99.90;;;;;;4993873;28;20122;-80
2024/01/13 00:32:20;;;;;;;4.65;3.15;;;5.30;99.90;;;;;;4994013;28;20041;-81
2024/01/13 00:34:46;;;;;;;5.18;3.30;;;5.30;99.90;;;;;;4995067;28;20514;-80
2024/01/13 00:37:12;;;;;;;4.55;3.10;;;5.30;99.90;;;;;;4993571;28;20030;-80
2024/01/13 00:39:37;;;;;;;8.10;4.10;;;5.30;99.90;;;;;;5012592;28;20068;-80
2024/01/13 00:42:03;;;;;;;10.30;3.90;;;5.30;99.90;;;;;;5003695;28;20057;-79
2024/01/13 00:44:29;;;;;;;5.32;3.97;;;5.30;99.90;;;;;;4994613;28;20368;-80
2024/01/13 00:46:54;;;;;;;8.15;3.00;;;5.30;99.90;;;;;;4993671;28;20493;-76
2024/01/13 00:49:20;;;;;;;5.97;3.42;;;5.30;99.90;;;;;;4993416;28;20517;-77
2024/01/13 00:51:45;;;;;;;6.40;4.05;;;5.30;99.90;;;;;;4993486;28;20403;-78
2024/01/13 00:54:11;;;;;;;14.63;4.00;;;5.40;99.90;;;;;;4993674;28;20027;-78
2024/01/13 00:56:38;;;;;;;7.53;3.83;;;5.40;99.90;;;;;;4994236;28;20093;-80
2024/01/13 00:59:03;;;;;;;7.07;3.95;;;5.30;99.90;;;;;;4994392;28;20125;-80
2024/01/13 01:01:29;;;;;;;9.40;5.00;;;5.30;99.90;;;;;;4994276;28;20085;-79
2024/01/13 01:03:55;;;;;;;8.55;5.00;;;5.40;99.90;;;;;;4994162;28;20085;-80
2024/01/13 01:06:21;;;;;;;11.35;5.00;;;5.40;99.90;;;;;;4994321;28;20026;-80
2024/01/13 01:08:46;;;;;;;9.43;4.57;;;5.40;99.90;;;;;;4994162;28;20450;-80
2024/01/13 01:11:12;;;;;;;10.32;4.85;;;5.40;99.90;;;;;;4994052;28;20023;-79
2024/01/13 01:13:38;;;;;;;10.20;5.10;;;5.40;99.90;;;;;;4991081;28;20177;-80
2024/01/13 01:16:04;;;;;;;8.45;4.93;;;5.30;99.90;;;;;;4993257;28;20088;-80
2024/01/13 01:18:30;;;;;;;9.43;5.63;;;5.20;99.90;;;;;;4994482;28;20255;-79
2024/01/13 01:20:56;;;;;;;11.65;5.60;;;5.20;99.90;;;;;;4993131;28;20025;-79
2024/01/13 01:23:21;;;;;;;10.52;5.57;;;5.10;99.90;;;;;;4993029;28;20548;-79
2024/01/13 01:25:47;;;;;;;10.90;5.78;;;5.20;99.90;;;;;;4993077;28;20023;-80
2024/01/13 01:28:13;;;;;;;10.32;6.07;;;5.20;99.90;;;;;;4994173;28;20030;-80
2024/01/13 01:30:38;;;;;;;13.45;6.22;;;5.20;99.90;;;;;;4993030;28;20037;-80
2024/01/13 01:33:04;;;;;;;13.98;6.75;;;5.20;99.90;;;;;;4992745;28;20443;-79
2024/01/13 01:35:30;;;;;;;17.23;6.80;;;5.20;99.90;;;;;;4992767;28;20030;-80
2024/01/13 01:37:56;;;;;;;8.82;5.13;;;5.20;99.90;;;;;;4999292;28;20109;-80
2024/01/13 01:40:26;;;;;;;9.40;4.60;;;5.20;99.90;;;;;;5013661;28;20117;-79
2024/01/13 01:42:52;;;;;;;10.70;6.15;;;5.20;99.90;;;;;;5013573;28;20030;-80
2024/01/13 01:45:18;;;;;;;11.52;5.32;;;5.20;99.90;;;;;;5012030;28;20406;-79
2024/01/13 01:47:45;;;;;;;9.38;5.43;;;5.20;99.90;;;;;;5012156;28;20076;-80
2024/01/13 01:50:11;;;;;;;11.15;5.75;;;5.20;99.90;;;;;;5003235;28;20023;-80
2024/01/13 01:52:39;;;;;;;14.95;6.70;;;5.20;99.90;;;;;;4994291;28;20507;-79
2024/01/13 01:55:06;;;;;;;10.65;5.78;;;5.20;99.90;;;;;;4992456;28;20399;-79
2024/01/13 01:57:37;;;;;;;16.48;7.28;;;5.20;99.90;;;;;;4992998;28;20031;-83
2024/01/13 02:00:04;;;;;;;12.85;6.35;;;5.10;99.90;;;;;;4993816;28;20038;-84
2024/01/13 02:02:30;;;;;;;17.70;6.88;;;5.00;99.90;;;;;;4992911;28;20403;-80
2024/01/13 02:04:56;;;;;;;18.05;7.22;;;5.10;99.90;;;;;;4993094;28;20035;-80
2024/01/13 02:07:24;;;;;;;11.70;6.57;;;5.10;99.90;;;;;;4991888;28;20030;-79
2024/01/13 02:09:50;;;;;;;14.10;7.78;;;5.20;99.90;;;;;;4992579;28;20049;-79
2024/01/13 02:12:16;;;;;;;16.48;7.45;;;5.20;99.90;;;;;;4992442;28;20037;-79
2024/01/13 02:14:41;;;;;;;16.20;8.15;;;5.20;99.90;;;;;;4992650;28;20479;-79
2024/01/13 02:17:08;;;;;;;16.83;7.30;;;5.20;99.90;;;;;;4996197;28;20038;-79
2024/01/13 02:19:34;;;;;;;15.90;8.05;;;5.20;99.90;;;;;;4997525;28;20042;-78
2024/01/13 02:22:01;;;;;;;16.50;8.07;;;5.20;99.90;;;;;;4997969;28;20030;-80
2024/01/13 02:24:26;;;;;;;18.65;8.88;;;5.20;99.90;;;;;;4997187;28;20483;-80
2024/01/13 02:26:52;;;;;;;14.52;8.35;;;5.20;99.90;;;;;;4997540;28;20038;-80
2024/01/13 02:29:17;;;;;;;16.80;7.75;;;5.20;99.90;;;;;;4996340;28;20038;-80
2024/01/13 02:31:43;;;;;;;18.30;8.55;;;5.20;99.90;;;;;;4996122;28;20031;-80
2024/01/13 02:34:09;;;;;;;17.85;8.10;;;5.20;99.90;;;;;;4996080;28;20058;-80
2024/01/13 02:36:34;;;;;;;16.50;8.13;;;5.10;99.90;;;;;;4995964;28;20030;-79
2024/01/13 02:39:02;;;;;;;19.50;9.13;;;5.10;99.90;;;;;;4996080;28;20026;-80
2024/01/13 02:41:28;;;;;;;17.92;8.55;;;5.10;99.90;;;;;;4997046;28;20053;-79
2024/01/13 02:43:53;;;;;;;22.98;8.38;;;5.10;99.90;;;;;;4995836;28;20022;-80
2024/01/13 02:46:19;;;;;;;29.40;9.70;;;5.10;99.90;;;;;;4995777;28;20129;-80
2024/01/13 02:48:50;;;;;;;19.50;8.27;;;5.10;99.90;;;;;;4996871;28;20113;-80
2024/01/13 02:51:16;;;;;;;17.15;7.35;;;5.10;99.90;;;;;;4995660;28;20141;-79
2024/01/13 02:53:42;;;;;;;15.75;8.10;;;5.10;99.90;;;;;;4995576;28;20598;-80
2024/01/13 02:56:08;;;;;;;18.05;7.55;;;5.00;99.90;;;;;;4995544;28;20117;-79
2024/01/13 02:58:34;;;;;;;16.15;7.18;;;5.00;99.90;;;;;;4995308;28;20092;-80
2024/01/13 03:01:02;;;;;;;19.50;8.45;;;5.00;99.90;;;;;;4996755;28;20031;-80
2024/01/13 03:03:28;;;;;;;16.58;8.68;;;4.90;99.90;;;;;;4996585;28;20034;-80
2024/01/13 03:05:53;;;;;;;18.95;8.15;;;4.90;99.90;;;;;;4992702;28;20035;-78
2024/01/13 03:08:21;;;;;;;21.45;8.50;;;4.90;99.90;;;;;;4996548;28;20057;-78
2024/01/13 03:10:47;;;;;;;22.08;9.98;;;4.80;99.90;;;;;;4995292;28;20031;-78
2024/01/13 03:13:12;;;;;;;15.20;7.80;;;4.90;99.90;;;;;;4995362;28;20058;-79
2024/01/13 03:15:38;;;;;;;17.33;7.35;;;4.90;99.90;;;;;;4997212;28;20081;-79
2024/01/13 03:18:04;;;;;;;19.15;8.15;;;4.90;99.90;;;;;;4997859;28;20093;-80
2024/01/13 03:20:29;;;;;;;17.27;8.07;;;5.00;99.90;;;;;;4996435;28;20030;-79
2024/01/13 03:22:55;;;;;;;19.33;8.20;;;5.00;99.90;;;;;;4995268;28;20081;-79
2024/01/13 03:25:21;;;;;;;20.52;9.30;;;5.00;99.90;;;;;;4995993;28;20130;-80
2024/01/13 03:27:46;;;;;;;16.92;8.20;;;5.00;99.90;;;;;;4996202;28;20475;-80
2024/01/13 03:30:12;;;;;;;18.75;8.68;;;5.00;99.90;;;;;;4994987;28;20031;-80
2024/01/13 03:32:38;;;;;;;15.48;7.32;;;5.00;99.90;;;;;;4995934;28;20022;-80
2024/01/13 03:35:04;;;;;;;19.15;9.18;;;5.00;99.90;;;;;;4996256;28;20161;-80
2024/01/13 03:37:29;;;;;;;21.35;8.43;;;5.00;99.90;;;;;;4997869;28;20026;-80
2024/01/13 03:39:55;;;;;;;18.88;8.27;;;5.00;99.90;;;;;;5015683;28;20062;-80
2024/01/13 03:42:20;;;;;;;20.05;8.68;;;5.00;99.90;;;;;;5015652;28;20117;-79
2024/01/13 03:44:46;;;;;;;18.83;7.93;;;5.00;99.90;;;;;;5015531;28;20029;-79
2024/01/13 03:47:11;;;;;;;22.75;9.20;;;5.00;99.90;;;;;;5015337;28;20021;-79
2024/01/13 03:49:37;;;;;;;17.00;8.25;;;5.00;99.90;;;;;;5001334;28;20030;-80
2024/01/13 03:52:03;;;;;;;17.38;8.57;;;4.90;99.90;;;;;;4994415;28;20038;-80
2024/01/13 03:54:29;;;;;;;18.27;8.07;;;4.90;99.90;;;;;;4994585;28;20026;-80
2024/01/13 03:56:54;;;;;;;17.13;7.95;;;5.00;99.90;;;;;;4995904;28;20026;-80
2024/01/13 03:59:20;;;;;;;14.15;7.63;;;5.00;99.90;;;;;;4994446;28;20045;-79
2024/01/13 04:01:46;;;;;;;15.85;7.32;;;5.00;99.90;;;;;;4995791;28;20101;-80
2024/01/13 04:04:11;;;;;;;16.13;7.63;;;5.00;99.90;;;;;;4995720;28;20031;-80
2024/01/13 04:06:41;;;;;;;14.93;7.15;;;5.00;99.90;;;;;;4994191;28;20026;-80
2024/01/13 04:09:08;;;;;;;17.33;6.15;;;5.00;99.90;;;;;;4995585;28;20475;-79
2024/01/13 04:11:34;;;;;;;14.25;6.88;;;5.00;99.90;;;;;;4995590;28;20468;-80
2024/01/13 04:13:59;;;;;;;15.35;7.45;;;5.00;99.90;;;;;;4994213;28;20030;-80
2024/01/13 04:16:25;;;;;;;13.82;6.38;;;5.00;99.90;;;;;;4995417;28;20027;-79
2024/01/13 04:18:50;;;;;;;18.80;8.77;;;5.00;99.90;;;;;;4995449;28;20399;-80
2024/01/13 04:21:16;;;;;;;16.52;7.22;;;5.00;99.90;;;;;;4995318;28;20026;-80
2024/01/13 04:23:42;;;;;;;17.23;8.45;;;5.10;99.90;;;;;;4993953;28;20030;-79
2024/01/13 04:26:09;;;;;;;13.35;7.07;;;5.00;99.90;;;;;;4995312;28;20101;-79
2024/01/13 04:28:35;;;;;;;16.73;7.22;;;5.10;99.90;;;;;;4995488;28;20026;-79
2024/01/13 04:31:01;;;;;;;14.63;6.97;;;5.00;99.90;;;;;;4995277;28;20044;-79
2024/01/13 04:33:26;;;;;;;16.92;6.70;;;5.10;99.90;;;;;;4995218;28;20019;-80
2024/01/13 04:35:52;;;;;;;13.85;6.43;;;5.10;99.90;;;;;;4994097;28;20027;-80
2024/01/13 04:38:18;;;;;;;14.05;6.53;;;5.10;99.90;;;;;;5002541;28;20064;-80
2024/01/13 04:40:47;;;;;;;14.73;6.40;;;5.10;99.90;;;;;;4999955;28;20026;-80
2024/01/13 04:43:13;;;;;;;15.05;6.53;;;5.20;99.90;;;;;;4995165;28;20033;-80
2024/01/13 04:45:38;;;;;;;14.15;6.88;;;5.20;99.90;;;;;;4994720;28;20497;-79
2024/01/13 04:48:04;;;;;;;16.35;6.70;;;5.20;99.90;;;;;;4993667;28;20022;-80
2024/01/13 04:50:30;;;;;;;20.77;7.03;;;5.10;99.90;;;;;;4993253;28;20046;-80
2024/01/13 04:52:56;;;;;;;12.35;6.80;;;5.10;99.90;;;;;;4993551;28;20023;-80
2024/01/13 04:55:21;;;;;;;17.15;7.47;;;5.10;99.90;;;;;;4994618;28;20029;-80
2024/01/13 04:57:47;;;;;;;17.00;7.80;;;5.10;99.90;;;;;;4996796;28;20030;-80
2024/01/13 05:00:13;;;;;;;16.90;7.32;;;5.10;99.90;;;;;;5003028;28;20026;-80
2024/01/13 05:02:39;;;;;;;19.08;7.72;;;5.10;99.90;;;;;;5000092;28;20395;-80
2024/01/13 05:05:05;;;;;;;17.42;6.88;;;5.10;99.90;;;;;;5000545;28;20027;-81
2024/01/13 05:07:30;;;;;;;21.17;7.78;;;5.10;99.90;;;;;;5002826;28;20030;-76
2024/01/13 05:09:56;;;;;;;14.27;7.70;;;5.10;99.90;;;;;;5010642;28;20026;-78
2024/01/13 05:12:22;;;;;;;21.05;7.30;;;5.10;99.90;;;;;;5011057;28;20026;-78
2024/01/13 05:14:47;;;;;;;13.05;6.53;;;5.10;99.90;;;;;;5011321;28;20050;-78
2024/01/13 05:17:13;;;;;;;14.30;6.65;;;5.00;99.90;;;;;;5010763;28;20023;-77
2024/01/13 05:19:38;;;;;;;14.40;6.15;;;5.00;99.90;;;;;;5012890;28;20082;-77
2024/01/13 05:22:04;;;;;;;14.13;6.90;;;5.10;99.90;;;;;;5011484;28;20006;-78
2024/01/13 05:24:30;;;;;;;15.55;6.53;;;5.10;99.90;;;;;;5011919;28;20046;-77
2024/01/13 05:26:56;;;;;;;20.15;7.97;;;5.10;99.90;;;;;;5011509;28;20150;-78
2024/01/13 05:29:22;;;;;;;14.65;6.75;;;5.00;99.90;;;;;;5009734;28;20015;-77
2024/01/13 05:31:47;;;;;;;16.73;6.85;;;5.00;99.90;;;;;;5005122;28;20244;-80
2024/01/13 05:34:13;;;;;;;13.93;6.93;;;5.10;99.90;;;;;;4992832;28;20050;-80
2024/01/13 05:36:40;;;;;;;14.18;7.53;;;5.00;99.90;;;;;;4992948;28;20049;-78
2024/01/13 05:39:05;;;;;;;15.73;6.50;;;5.00;99.90;;;;;;4999651;28;20086;-76
2024/01/13 05:41:31;;;;;;;14.32;7.03;;;5.10;99.90;;;;;;5001838;28;20065;-77
2024/01/13 05:43:56;;;;;;;16.20;7.93;;;5.10;99.90;;;;;;5001800;28;20019;-76
2024/01/13 05:46:22;;;;;;;14.68;7.35;;;5.20;99.90;;;;;;5002871;28;20022;-76
2024/01/13 05:48:48;;;;;;;14.82;6.70;;;5.20;99.90;;;;;;4999018;28;20111;-78
2024/01/13 05:51:14;;;;;;;13.77;6.85;;;5.20;99.90;;;;;;4992470;28;20088;-78
2024/01/13 05:53:39;;;;;;;12.38;5.80;;;5.20;99.90;;;;;;4993936;28;20026;-79
2024/01/13 05:56:06;;;;;;;18.30;5.97;;;5.10;99.90;;;;;;4993885;28;20086;-79
2024/01/13 05:58:32;;;;;;;12.95;6.13;;;5.20;99.90;;;;;;4993835;28;20018;-79
2024/01/13 06:00:58;;;;;;;14.77;6.13;;;5.20;99.90;;;;;;4993814;28;20513;-79
2024/01/13 06:03:24;;;;;;;13.43;5.35;;;5.10;99.90;;;;;;4993855;28;20057;-79
2024/01/13 06:05:49;;;;;;;12.20;6.65;;;5.20;99.90;;;;;;4993594;28;20471;-79
2024/01/13 06:08:15;;;;;;;13.25;5.85;;;5.20;99.90;;;;;;4992396;28;20080;-79
2024/01/13 06:10:40;;;;;;;10.38;5.15;;;5.20;99.90;;;;;;4992328;28;20122;-78
2024/01/13 06:13:07;;;;;;;9.13;4.82;;;5.20;99.90;;;;;;4992201;28;20109;-78
2024/01/13 06:15:32;;;;;;;13.60;5.57;;;5.20;99.90;;;;;;4993466;28;20368;-78
2024/01/13 06:17:58;;;;;;;8.52;4.95;;;5.20;99.90;;;;;;4992438;28;20041;-78
2024/01/13 06:20:24;;;;;;;12.40;4.65;;;5.20;99.90;;;;;;4993564;28;20113;-79
2024/01/13 06:22:49;;;;;;;10.32;4.43;;;5.20;99.90;;;;;;4992061;28;20034;-78
2024/01/13 06:25:15;;;;;;;7.68;4.78;;;5.30;99.90;;;;;;4993476;28;20367;-78
2024/01/13 06:27:40;;;;;;;7.85;4.05;;;5.30;99.90;;;;;;4992127;28;20017;-78
2024/01/13 06:30:08;;;;;;;8.60;4.40;;;5.30;99.90;;;;;;4993522;28;20483;-78
2024/01/13 06:32:34;;;;;;;8.40;4.80;;;5.30;99.90;;;;;;4992235;28;20513;-78
2024/01/13 06:34:59;;;;;;;11.35;5.20;;;5.20;99.90;;;;;;4992480;28;20019;-78
2024/01/13 06:37:25;;;;;;;11.18;5.53;;;5.20;99.90;;;;;;4993483;28;20018;-82
2024/01/13 06:39:51;;;;;;;8.55;4.35;;;5.20;99.90;;;;;;4995593;28;20125;-82
2024/01/13 06:42:16;;;;;;;10.40;4.35;;;5.20;99.90;;;;;;4991939;28;20113;-82
2024/01/13 06:44:42;;;;;;;10.52;4.55;;;5.20;99.90;;;;;;4993177;28;20074;-82
2024/01/13 06:47:07;;;;;;;8.07;3.55;;;5.20;99.90;;;;;;4993574;28;20101;-79
2024/01/13 06:49:33;;;;;;;5.40;2.70;;;5.20;99.90;;;;;;4991905;28;20475;-79
2024/01/13 06:51:59;;;;;;;4.75;3.05;;;5.30;99.90;;;;;;4991949;28;20055;-79
2024/01/13 06:54:25;;;;;;;7.07;3.05;;;5.30;99.90;;;;;;4993462;28;20030;-79
2024/01/13 06:56:50;;;;;;;2.83;2.42;;;5.20;99.90;;;;;;4991832;28;20118;-79
2024/01/13 06:59:16;;;;;;;5.25;2.55;;;5.20;99.90;;;;;;4993574;28;20423;-79
2024/01/13 07:01:42;;;;;;;6.28;2.63;;;5.20;99.90;;;;;;4994024;28;20081;-79
2024/01/13 07:04:09;;;;;;;6.28;2.72;;;5.20;99.90;;;;;;4995335;28;20043;-79
2024/01/13 07:06:36;;;;;;;5.55;2.22;;;5.10;99.90;;;;;;4992749;28;20022;-78
2024/01/13 07:09:02;;;;;;;8.40;2.97;;;5.10;99.90;;;;;;4995476;28;20019;-79
2024/01/13 07:11:28;;;;;;;6.80;2.38;;;5.10;99.90;;;;;;4995163;28;20026;-78
2024/01/13 07:13:54;;;;;;;2.60;1.90;;;5.20;99.90;;;;;;4995064;28;20049;-79
2024/01/13 07:16:20;;;;;;;6.07;2.10;;;5.20;99.90;;;;;;4992481;28;20037;-78
2024/01/13 07:18:45;;;;;;;1.88;1.52;;;5.30;99.90;;;;;;4995206;28;20109;-79
2024/01/13 07:21:12;;;;;;;3.17;2.05;;;5.40;99.90;;;;;;4996783;28;20030;-79
2024/01/13 07:23:38;;;;;;;3.88;2.63;;;5.40;99.90;;;;;;4996339;28;20030;-79
2024/01/13 07:26:05;;;;;;;5.57;3.08;;;5.40;99.90;;;;;;4996497;28;20483;-80
2024/01/13 07:28:31;;;;;;;5.55;2.88;;;5.40;99.90;;;;;;4995141;28;20030;-79
2024/01/13 07:30:57;;;;;;;5.90;3.10;;;5.40;99.90;;;;;;4995329;28;20015;-79
2024/01/13 07:33:22;;;;;;;5.93;2.90;;;5.40;99.90;;;;;;4996627;28;20029;-79
2024/01/13 07:35:48;;;;;;;4.80;2.88;;;5.40;99.90;;;;;;4996381;28;20105;-79
2024/01/13 07:38:13;;;;;;;6.00;3.40;;;5.30;99.90;;;;;;5003964;28;20030;-80
2024/01/13 07:40:39;;;;;;;5.35;2.95;;;5.20;99.90;;;;;;5016032;28;20038;-80
2024/01/13 07:43:05;;;;;;;8.85;2.90;;;5.10;99.90;;;;;;5015857;28;20026;-79
2024/01/13 07:45:30;;;;;;;8.48;3.85;;;5.00;99.90;;;;;;5015732;28;20025;-79
2024/01/13 07:47:56;;;;;;;3.20;1.90;;;5.00;99.90;;;;;;4997586;28;20023;-79
2024/01/13 07:50:22;;;;;;;4.03;2.38;;;5.00;99.90;;;;;;4996150;28;20043;-79
2024/01/13 07:52:48;;;;;;;3.80;2.45;;;5.10;99.90;;;;;;4996073;28;20050;-78
2024/01/13 07:55:13;;;;;;;3.58;2.47;;;5.10;99.90;;;;;;4996034;28;20034;-76
2024/01/13 07:57:39;;;;;;;3.33;2.30;;;5.10;99.90;;;;;;4996545;28;20491;-82
2024/01/13 08:00:05;;;;;;;5.30;3.20;;;5.10;99.90;;;;;;4996399;28;20498;-81
2024/01/13 08:02:31;;;;;;;9.48;3.42;;;5.10;99.90;;;;;;4995581;28;20065;-81
2024/01/13 08:04:57;;;;;;;4.60;3.35;;;5.10;99.90;;;;;;4994231;28;20058;-82
2024/01/13 08:07:25;;;;;;;4.40;2.90;;;5.20;99.90;;;;;;4995617;28;20395;-82
2024/01/13 08:09:51;;;;;;;6.50;2.47;;;5.20;99.90;;;;;;4994187;28;20027;-82
2024/01/13 08:12:17;;;;;;;7.35;2.92;;;5.10;99.90;;;;;;4993814;28;20022;-81
2024/01/13 08:14:42;;;;;;;9.57;2.75;;;5.10;99.90;;;;;;4994010;28;20113;-82
2024/01/13 08:17:08;;;;;;;3.22;2.60;;;5.20;99.90;;;;;;4993973;28;20474;-82
2024/01/13 08:19:35;;;;;;;5.15;2.35;;;5.20;99.90;;;;;;4995597;28;20027;-82
2024/01/13 08:22:01;;;;;;;3.47;2.40;;;5.20;99.90;;;;;;4995216;28;20057;-81
2024/01/13 08:24:26;;;;;;;2.67;2.38;;;5.10;99.90;;;;;;4995297;28;20058;-81
2024/01/13 08:26:53;;;;;;;5.78;3.28;;;5.00;99.90;;;;;;4991273;28;20038;-81
2024/01/13 08:29:19;;;;;;;4.72;2.85;;;5.00;99.90;;;;;;4993926;28;20050;-81
2024/01/13 08:31:48;;;;;;;6.88;2.88;;;5.10;99.90;;;;;;4995218;28;20057;-81
2024/01/13 08:34:13;;;;;;;4.63;3.05;;;5.10;99.90;;;;;;4994971;28;20105;-81
2024/01/13 08:36:41;;;;;;;6.95;2.97;;;5.00;99.90;;;;;;4995075;28;20546;-82
2024/01/13 08:39:07;;;;;;;5.63;3.15;;;5.00;99.90;;;;;;5009648;28;20493;-81
2024/01/13 08:41:34;;;;;;;6.35;3.05;;;5.00;99.90;;;;;;5014997;28;20114;-81
2024/01/13 08:43:59;;;;;;;3.60;2.13;;;4.80;99.90;;;;;;5014413;28;20116;-81
2024/01/13 08:46:25;;;;;;;6.47;3.30;;;4.90;99.90;;;;;;5014008;28;20109;-81
2024/01/13 08:48:51;;;;;;;4.03;2.08;;;4.80;99.90;;;;;;5014901;28;20056;-81
2024/01/13 08:51:17;;;;;;;9.15;3.05;;;4.80;99.90;;;;;;5013465;28;20088;-82
2024/01/13 08:53:44;;;;;;;8.40;3.15;;;4.80;99.90;;;;;;5015155;28;20025;-81
2024/01/13 08:56:09;;;;;;;7.25;2.83;;;4.80;99.90;;;;;;4995067;28;20022;-82
2024/01/13 08:58:35;;;;;;;5.55;2.92;;;4.80;99.90;;;;;;4994676;28;20440;-78
2024/01/13 09:01:01;;;;;;;6.50;2.42;;;4.80;99.90;;;;;;4994407;28;20022;-77
2024/01/13 09:03:28;;;;;;;3.72;2.28;;;4.90;99.90;;;;;;4993356;28;20029;-78
2024/01/13 09:05:54;;;;;;;5.28;2.85;;;4.90;99.90;;;;;;4994621;28;20029;-78
2024/01/13 09:08:20;;;;;;;10.32;3.97;;;4.90;99.90;;;;;;4994333;28;20045;-78
2024/01/13 09:10:46;;;;;;;6.35;2.67;;;4.90;99.90;;;;;;4978511;28;20022;-77
2024/01/13 09:13:11;;;;;;;7.85;3.72;;;4.90;99.90;;;;;;4992365;28;20391;-77
2024/01/13 09:15:37;;;;;;;6.32;3.40;;;4.90;99.90;;;;;;4994722;28;20406;-76
2024/01/13 09:18:04;;;;;;;7.63;3.47;;;4.90;99.90;;;;;;4994366;28;20093;-76
2024/01/13 09:20:30;;;;;;;7.07;3.63;;;4.90;99.90;;;;;;4994467;28;20054;-77
2024/01/13 09:22:56;;;;;;;9.43;5.18;;;5.00;99.90;;;;;;4993502;28;20030;-81
2024/01/13 09:25:21;;;;;;;5.43;3.05;;;5.00;99.90;;;;;;4994735;28;20475;-81
2024/01/13 09:27:47;;;;;;;7.90;3.97;;;5.10;99.90;;;;;;4994612;28;20037;-79
2024/01/13 09:30:13;;;;;;;10.73;4.20;;;5.10;99.90;;;;;;4994361;28;20022;-79
2024/01/13 09:32:38;;;;;;;8.50;4.03;;;5.20;99.90;;;;;;4993109;28;20030;-80
2024/01/13 09:35:04;;;;;;;15.95;4.88;;;5.20;99.90;;;;;;4994356;28;20479;-79
2024/01/13 09:37:30;;;;;;;6.85;4.22;;;5.10;99.90;;;;;;4993308;28;20031;-79
2024/01/13 09:39:56;;;;;;;9.68;4.80;;;5.20;99.90;;;;;;4993212;28;20494;-79
2024/01/13 09:42:39;;;;;;;8.02;4.57;;;5.20;99.90;;;;;;4993176;28;20027;-79
2024/01/13 09:45:06;;;;;;;9.52;4.60;;;5.20;99.90;;;;;;4994339;28;20026;-80
2024/01/13 09:47:32;;;;;;;10.68;4.90;;;5.30;99.90;;;;;;4993071;28;20030;-80
2024/01/13 09:49:58;;;;;;;8.48;4.07;;;5.30;99.90;;;;;;4989698;28;20035;-80
2024/01/13 09:52:24;;;;;;;16.13;6.38;;;5.40;99.90;;;;;;4993633;28;20102;-80
2024/01/13 09:54:58;;;;;;;22.42;8.70;;;5.30;99.90;;;;;;4992584;28;20083;-83
2024/01/13 09:57:25;;;;;;;18.48;7.78;;;5.20;99.90;;;;;;4990344;28;20450;-81
2024/01/13 09:59:51;;;;;;;21.90;7.97;;;5.10;99.90;;;;;;4992447;28;20033;-81
2024/01/13 10:02:16;;;;;;;17.35;8.13;;;5.00;99.90;;;;;;4993692;28;20105;-81
2024/01/13 10:04:43;;;;;;;21.65;8.65;;;5.00;99.90;;;;;;4993740;28;20038;-82
2024/01/13 10:07:10;;;;;;;17.23;7.90;;;5.00;99.90;;;;;;4993849;28;20030;-78
2024/01/13 10:09:39;;;;;;;21.92;9.15;;;4.90;99.90;;;;;;4999110;28;20022;-80
2024/01/13 10:12:06;;;;;;;19.48;9.32;;;5.00;99.90;;;;;;5004048;28;20199;-78
2024/01/13 10:14:35;;;;;;;23.17;8.57;;;4.90;99.90;;;;;;4993331;28;20042;-78
2024/01/13 10:17:03;;;;;;;21.23;9.18;;;4.90;99.90;;;;;;4993432;28;20126;-80
2024/01/13 10:19:29;;;;;;;22.92;10.45;;;4.90;99.90;;;;;;4992291;28;20053;-80
2024/01/13 10:21:55;;;;;;;21.33;9.68;;;4.90;99.90;;;;;;4993498;28;20057;-79
2024/01/13 10:24:21;;;;;;;19.83;8.68;;;4.90;99.90;;;;;;4992441;28;20053;-78
2024/01/13 10:26:46;;;;;;;30.92;10.30;;;4.90;99.90;;;;;;4992324;28;20014;-78
2024/01/13 10:29:13;;;;;;;19.40;9.10;;;4.90;99.90;;;;;;4993404;28;20027;-78
2024/01/13 10:31:39;;;;;;;17.17;8.73;;;4.90;99.90;;;;;;4993304;28;20022;-79
2024/01/13 10:34:11;;;;;;;19.13;8.40;;;4.80;99.90;;;;;;4992033;28;20459;-79
2024/01/13 10:36:38;;;;;;;25.20;9.40;;;4.90;99.90;;;;;;4995174;28;20088;-79
2024/01/13 10:39:04;;;;;;;21.90;9.18;;;4.90;99.90;;;;;;4995815;28;20027;-79
2024/01/13 10:41:30;;;;;;;24.00;11.05;;;4.80;99.90;;;;;;4995573;28;20041;-80
2024/01/13 10:43:56;;;;;;;23.55;10.60;;;4.80;99.90;;;;;;4996766;28;20501;-79
2024/01/13 10:46:24;;;;;;;25.30;10.95;;;4.90;99.90;;;;;;4995699;28;20022;-80
2024/01/13 10:48:54;;;;;;;29.83;13.13;;;4.90;99.90;;;;;;4995560;28;20029;-78
2024/01/13 10:51:23;;;;;;;30.65;12.73;;;4.80;99.90;;;;;;4995293;28;20039;-80
2024/01/13 10:53:51;;;;;;;30.08;13.63;;;4.90;99.90;;;;;;4995439;28;20022;-80
2024/01/13 10:56:16;;;;;;;31.52;12.05;;;4.90;99.90;;;;;;4995451;28;20019;-81
2024/01/13 10:58:49;;;;;;;27.75;11.60;;;4.90;99.90;;;;;;4996754;28;20057;-79
2024/01/13 11:01:14;;;;;;;29.70;12.15;;;4.80;99.90;;;;;;4993008;28;20034;-80
2024/01/13 11:03:45;;;;;;;37.50;14.82;;;4.80;99.90;;;;;;5006723;28;20022;-78
2024/01/13 11:06:11;;;;;;;33.47;13.60;;;4.80;99.90;;;;;;5012467;28;20026;-76
2024/01/13 11:08:37;;;;;;;27.00;11.85;;;4.90;99.90;;;;;;5007958;28;20038;-77
2024/01/13 11:11:05;;;;;;;29.83;11.15;;;4.90;99.90;;;;;;4980572;28;20487;-80
2024/01/13 11:13:53;;;;;;;24.70;10.40;;;5.00;99.90;;;;;;4995075;28;20113;-80
2024/01/13 11:16:21;;;;;;;30.92;12.63;;;5.10;99.90;;;;;;4995972;28;20401;-80
2024/01/13 11:18:52;;;;;;;25.70;11.35;;;5.20;99.90;;;;;;4994964;28;20441;-79
2024/01/13 11:21:19;;;;;;;31.88;12.32;;;5.20;99.90;;;;;;4996243;28;20030;-79
2024/01/13 11:23:54;;;;;;;31.40;11.53;;;5.30;99.90;;;;;;5002074;28;20095;-77
2024/01/13 11:26:32;;;;;;;32.95;12.60;;;5.20;99.90;;;;;;5008227;28;20030;-78
2024/01/13 11:28:58;;;;;;;34.33;13.18;;;5.20;99.90;;;;;;5019330;28;20021;-78
2024/01/13 11:31:30;;;;;;;33.08;14.05;;;5.20;99.90;;;;;;5019137;28;20070;-77
2024/01/13 11:33:58;;;;;;;33.60;13.63;;;5.30;99.90;;;;;;5018923;28;20022;-78
2024/01/13 11:36:26;;;;;;;33.30;13.32;;;5.40;99.90;;;;;;5019896;28;20010;-79
2024/01/13 11:38:52;;;;;;;39.67;14.40;;;5.40;99.90;;;;;;5019454;28;20014;-79
2024/01/13 11:41:18;;;;;;;31.33;12.25;;;5.40;99.90;;;;;;5016863;28;20031;-78
2024/01/13 11:43:48;;;;;;;28.10;12.40;;;5.50;99.90;;;;;;5019143;28;20037;-79
2024/01/13 11:46:17;;;;;;;32.10;13.02;;;5.60;99.90;;;;;;5018013;28;20557;-78
2024/01/13 11:48:43;;;;;;;33.58;12.75;;;5.70;99.90;;;;;;5016041;28;20018;-78
2024/01/13 11:51:13;;;;;;;29.33;13.00;;;5.70;99.90;;;;;;5017538;28;20039;-79
2024/01/13 11:53:43;;;;;;;36.05;15.05;;;5.80;99.90;;;;;;5016085;28;20099;-78
2024/01/13 11:56:10;;;;;;;38.00;14.60;;;5.80;99.90;;;;;;5016739;28;20029;-78
2024/01/13 11:58:38;;;;;;;34.35;14.15;;;5.80;99.90;;;;;;5014041;28;20030;-78
2024/01/13 12:01:09;;;;;;;34.90;13.98;;;5.80;99.90;;;;;;5003259;28;20025;-81
2024/01/13 12:03:35;;;;;;;38.92;14.70;;;5.80;99.90;;;;;;5000786;28;20037;-80
2024/01/13 12:06:01;;;;;;;34.03;13.73;;;5.80;99.90;;;;;;4998067;28;20050;-79
2024/01/13 12:08:27;;;;;;;31.77;13.90;;;5.80;99.90;;;;;;4995824;28;20029;-81
2024/01/13 12:10:53;;;;;;;32.70;14.45;;;5.80;99.90;;;;;;4995118;28;20030;-81
2024/01/13 12:13:22;;;;;;;35.67;14.80;;;5.70;99.90;;;;;;4997131;28;20057;-81
2024/01/13 12:15:48;;;;;;;34.17;14.77;;;5.70;99.90;;;;;;4995516;28;20076;-81
2024/01/13 12:18:20;;;;;;;33.80;14.00;;;5.70;99.90;;;;;;4996140;28;20386;-80
2024/01/13 12:20:59;;;;;;;28.35;12.98;;;5.60;99.90;;;;;;4995908;28;20406;-80
2024/01/13 12:23:25;;;;;;;33.88;14.85;;;5.60;99.90;;;;;;4994999;28;20022;-80
2024/01/13 12:25:52;;;;;;;31.85;13.10;;;5.60;99.90;;;;;;4994298;28;20018;-80
2024/01/13 12:28:19;;;;;;;31.80;12.75;;;5.60;99.90;;;;;;4995806;28;20027;-80
2024/01/13 12:30:45;;;;;;;32.95;13.48;;;5.60;99.90;;;;;;4994556;28;20022;-78
2024/01/13 12:33:11;;;;;;;32.90;14.02;;;5.60;99.90;;;;;;4993945;28;20027;-79
2024/01/13 12:35:37;;;;;;;42.75;15.73;;;5.70;99.90;;;;;;4993670;28;20033;-79
2024/01/13 12:38:06;;;;;;;32.42;13.65;;;5.80;99.90;;;;;;4995210;28;20434;-82
2024/01/13 12:40:32;;;;;;;32.40;13.95;;;5.80;99.90;;;;;;4994972;28;20022;-83
2024/01/13 12:42:58;;;;;;;31.73;14.40;;;5.80;99.90;;;;;;4994931;28;20033;-79